sensor_id;sensor_type;location;lat;lon;timestamp;temperature;humidity
51950;DHT22;37974;53.218;6.640;2023-07-13T00:02:10;16.00;99.90
51950;DHT22;37974;53.218;6.640;2023-07-13T00:04:35;16.00;99.90
51950;DHT22;37974;53.218;6.640;2023-07-13T00:07:01;16.00;99.90
51950;DHT22;37974;53.218;6.640;2023-07-13T00:09:28;16.00;99.90
51950;DHT22;37974;53.218;6.640;2023-07-13T00:11:54;16.00;99.90
51950;DHT22;37974;53.218;6.640;2023-07-13T00:14:21;16.00;99.90
51950;DHT22;37974;53.218;6.640;2023-07-13T00:16:49;16.00;99.90
51950;DHT22;37974;53.218;6.640;2023-07-13T00:19:15;16.00;99.90
51950;DHT22;37974;53.218;6.640;2023-07-13T00:21:41;15.90;99.90
51950;DHT22;37974;53.218;6.640;2023-07-13T00:24:07;15.90;99.90
51950;DHT22;37974;53.218;6.640;2023-07-13T00:26:33;15.90;99.90
51950;DHT22;37974;53.218;6.640;2023-07-13T00:28:59;15.90;99.90
51950;DHT22;37974;53.218;6.640;2023-07-13T00:31:25;15.90;99.90
51950;DHT22;37974;53.218;6.640;2023-07-13T00:33:50;16.00;99.90
51950;DHT22;37974;53.218;6.640;2023-07-13T00:36:16;16.00;99.90
51950;DHT22;37974;53.218;6.640;2023-07-13T00:38:42;16.00;99.90
51950;DHT22;37974;53.218;6.640;2023-07-13T00:41:08;16.00;99.90
51950;DHT22;37974;53.218;6.640;2023-07-13T00:43:34;16.00;99.90
51950;DHT22;37974;53.218;6.640;2023-07-13T00:48:29;16.00;99.90
51950;DHT22;37974;53.218;6.640;2023-07-13T00:50:56;16.00;99.90
51950;DHT22;37974;53.218;6.640;2023-07-13T00:53:23;16.00;99.90
51950;DHT22;37974;53.218;6.640;2023-07-13T00:55:51;16.00;99.90
51950;DHT22;37974;53.218;6.640;2023-07-13T00:58:18;16.00;99.90
51950;DHT22;37974;53.218;6.640;2023-07-13T01:00:44;16.00;99.90
51950;DHT22;37974;53.218;6.640;2023-07-13T01:03:12;16.00;99.90
51950;DHT22;37974;53.218;6.640;2023-07-13T01:05:37;16.00;99.90
51950;DHT22;37974;53.218;6.640;2023-07-13T01:08:04;16.00;99.90
51950;DHT22;37974;53.218;6.640;2023-07-13T01:10:31;16.00;99.90
51950;DHT22;37974;53.218;6.640;2023-07-13T01:13:07;16.00;99.90
51950;DHT22;37974;53.218;6.640;2023-07-13T01:18:03;15.90;99.90
51950;DHT22;37974;53.218;6.640;2023-07-13T01:20:29;15.90;99.90
51950;DHT22;37974;53.218;6.640;2023-07-13T01:22:55;15.80;99.90
51950;DHT22;37974;53.218;6.640;2023-07-13T01:25:20;15.80;99.90
51950;DHT22;37974;53.218;6.640;2023-07-13T01:27:46;15.80;99.90
51950;DHT22;37974;53.218;6.640;2023-07-13T01:30:12;15.80;99.90
51950;DHT22;37974;53.218;6.640;2023-07-13T01:32:37;15.70;99.90
51950;DHT22;37974;53.218;6.640;2023-07-13T01:35:07;15.70;99.90
51950;DHT22;37974;53.218;6.640;2023-07-13T01:37:32;15.70;99.90
51950;DHT22;37974;53.218;6.640;2023-07-13T01:40:02;15.70;99.90
51950;DHT22;37974;53.218;6.640;2023-07-13T01:42:28;15.80;99.90
51950;DHT22;37974;53.218;6.640;2023-07-13T01:44:53;15.70;99.90
51950;DHT22;37974;53.218;6.640;2023-07-13T01:47:19;15.70;99.90
51950;DHT22;37974;53.218;6.640;2023-07-13T01:49:45;15.70;99.90
51950;DHT22;37974;53.218;6.640;2023-07-13T01:52:12;15.80;99.90
51950;DHT22;37974;53.218;6.640;2023-07-13T01:54:38;15.80;99.90
51950;DHT22;37974;53.218;6.640;2023-07-13T01:57:04;15.80;99.90
51950;DHT22;37974;53.218;6.640;2023-07-13T01:59:29;15.80;99.90
51950;DHT22;37974;53.218;6.640;2023-07-13T02:01:55;15.80;99.90
51950;DHT22;37974;53.218;6.640;2023-07-13T02:04:21;15.80;99.90
51950;DHT22;37974;53.218;6.640;2023-07-13T02:06:46;15.90;99.90
51950;DHT22;37974;53.218;6.640;2023-07-13T02:09:12;15.80;99.90
51950;DHT22;37974;53.218;6.640;2023-07-13T02:11:37;15.90;99.90
51950;DHT22;37974;53.218;6.640;2023-07-13T02:14:03;15.90;99.90
51950;DHT22;37974;53.218;6.640;2023-07-13T02:16:29;15.80;99.90
51950;DHT22;37974;53.218;6.640;2023-07-13T02:18:55;15.90;99.90
51950;DHT22;37974;53.218;6.640;2023-07-13T02:21:21;15.90;99.90
51950;DHT22;37974;53.218;6.640;2023-07-13T02:23:47;15.80;99.90
51950;DHT22;37974;53.218;6.640;2023-07-13T02:26:12;15.80;99.90
51950;DHT22;37974;53.218;6.640;2023-07-13T02:28:38;15.80;99.90
51950;DHT22;37974;53.218;6.640;2023-07-13T02:31:05;15.80;99.90
51950;DHT22;37974;53.218;6.640;2023-07-13T02:33:30;15.80;99.90
51950;DHT22;37974;53.218;6.640;2023-07-13T02:35:56;15.80;99.90
51950;DHT22;37974;53.218;6.640;2023-07-13T02:38:22;15.70;99.90
51950;DHT22;37974;53.218;6.640;2023-07-13T02:40:47;15.70;99.90
51950;DHT22;37974;53.218;6.640;2023-07-13T02:43:13;15.70;99.90
51950;DHT22;37974;53.218;6.640;2023-07-13T02:45:38;15.60;99.90
51950;DHT22;37974;53.218;6.640;2023-07-13T02:48:08;15.60;99.90
51950;DHT22;37974;53.218;6.640;2023-07-13T02:50:34;15.60;99.90
51950;DHT22;37974;53.218;6.640;2023-07-13T02:52:59;15.50;99.90
51950;DHT22;37974;53.218;6.640;2023-07-13T02:55:25;15.50;99.90
51950;DHT22;37974;53.218;6.640;2023-07-13T02:57:50;15.50;99.90
51950;DHT22;37974;53.218;6.640;2023-07-13T03:00:16;15.50;99.90
51950;DHT22;37974;53.218;6.640;2023-07-13T03:02:42;15.40;99.90
51950;DHT22;37974;53.218;6.640;2023-07-13T03:05:10;15.40;99.90
51950;DHT22;37974;53.218;6.640;2023-07-13T03:07:38;15.40;99.90
51950;DHT22;37974;53.218;6.640;2023-07-13T03:10:04;15.30;99.90
51950;DHT22;37974;53.218;6.640;2023-07-13T03:12:30;15.30;99.90
51950;DHT22;37974;53.218;6.640;2023-07-13T03:14:55;15.30;99.90
51950;DHT22;37974;53.218;6.640;2023-07-13T03:17:22;15.30;99.90
51950;DHT22;37974;53.218;6.640;2023-07-13T03:19:48;15.30;99.90
51950;DHT22;37974;53.218;6.640;2023-07-13T03:22:16;15.30;99.90
51950;DHT22;37974;53.218;6.640;2023-07-13T03:24:41;15.30;99.90
51950;DHT22;37974;53.218;6.640;2023-07-13T03:27:07;15.20;99.90
51950;DHT22;37974;53.218;6.640;2023-07-13T03:29:33;15.20;99.90
51950;DHT22;37974;53.218;6.640;2023-07-13T03:31:59;15.20;99.90
51950;DHT22;37974;53.218;6.640;2023-07-13T03:34:27;15.20;99.90
51950;DHT22;37974;53.218;6.640;2023-07-13T03:36:54;15.20;99.90
51950;DHT22;37974;53.218;6.640;2023-07-13T03:39:20;15.20;99.90
51950;DHT22;37974;53.218;6.640;2023-07-13T03:41:45;15.20;99.90
51950;DHT22;37974;53.218;6.640;2023-07-13T03:44:11;15.20;99.90
51950;DHT22;37974;53.218;6.640;2023-07-13T03:46:37;15.20;99.90
51950;DHT22;37974;53.218;6.640;2023-07-13T03:49:03;15.20;99.90
51950;DHT22;37974;53.218;6.640;2023-07-13T03:51:29;15.20;99.90
51950;DHT22;37974;53.218;6.640;2023-07-13T03:53:56;15.30;99.90
51950;DHT22;37974;53.218;6.640;2023-07-13T03:56:22;15.30;99.90
51950;DHT22;37974;53.218;6.640;2023-07-13T03:58:48;15.40;99.90
51950;DHT22;37974;53.218;6.640;2023-07-13T04:01:15;15.40;99.90
51950;DHT22;37974;53.218;6.640;2023-07-13T04:03:41;15.40;99.90
51950;DHT22;37974;53.218;6.640;2023-07-13T04:06:07;15.40;99.90
51950;DHT22;37974;53.218;6.640;2023-07-13T04:08:34;15.40;99.90
51950;DHT22;37974;53.218;6.640;2023-07-13T04:11:00;15.40;99.90
51950;DHT22;37974;53.218;6.640;2023-07-13T04:13:32;15.50;99.90
51950;DHT22;37974;53.218;6.640;2023-07-13T04:15:58;15.40;99.90
51950;DHT22;37974;53.218;6.640;2023-07-13T04:18:24;15.40;99.90
51950;DHT22;37974;53.218;6.640;2023-07-13T04:20:49;15.40;99.90
51950;DHT22;37974;53.218;6.640;2023-07-13T04:23:18;15.50;99.90
51950;DHT22;37974;53.218;6.640;2023-07-13T04:25:47;15.50;99.90
51950;DHT22;37974;53.218;6.640;2023-07-13T04:28:15;15.50;99.90
51950;DHT22;37974;53.218;6.640;2023-07-13T04:30:40;15.50;99.90
51950;DHT22;37974;53.218;6.640;2023-07-13T04:33:06;15.50;99.90
51950;DHT22;37974;53.218;6.640;2023-07-13T04:35:33;15.50;99.90
51950;DHT22;37974;53.218;6.640;2023-07-13T04:37:58;15.50;99.90
51950;DHT22;37974;53.218;6.640;2023-07-13T04:40:25;15.60;99.90
51950;DHT22;37974;53.218;6.640;2023-07-13T04:42:51;15.60;99.90
51950;DHT22;37974;53.218;6.640;2023-07-13T04:45:17;15.60;99.90
51950;DHT22;37974;53.218;6.640;2023-07-13T04:47:43;15.70;99.90
51950;DHT22;37974;53.218;6.640;2023-07-13T04:50:08;15.70;99.90
51950;DHT22;37974;53.218;6.640;2023-07-13T04:52:36;15.80;99.90
51950;DHT22;37974;53.218;6.640;2023-07-13T04:55:01;15.80;99.90
51950;DHT22;37974;53.218;6.640;2023-07-13T04:57:27;15.90;99.90
51950;DHT22;37974;53.218;6.640;2023-07-13T04:59:53;15.90;99.90
51950;DHT22;37974;53.218;6.640;2023-07-13T05:02:20;16.00;99.90
51950;DHT22;37974;53.218;6.640;2023-07-13T05:04:46;16.00;99.90
51950;DHT22;37974;53.218;6.640;2023-07-13T05:07:12;16.10;99.90
51950;DHT22;37974;53.218;6.640;2023-07-13T05:09:38;16.20;99.90
51950;DHT22;37974;53.218;6.640;2023-07-13T05:12:08;16.20;99.90
51950;DHT22;37974;53.218;6.640;2023-07-13T05:14:34;16.30;99.90
51950;DHT22;37974;53.218;6.640;2023-07-13T05:16:59;16.40;99.90
51950;DHT22;37974;53.218;6.640;2023-07-13T05:19:25;16.50;99.90
51950;DHT22;37974;53.218;6.640;2023-07-13T05:21:51;16.60;99.90
51950;DHT22;37974;53.218;6.640;2023-07-13T05:24:17;16.70;99.90
51950;DHT22;37974;53.218;6.640;2023-07-13T05:26:43;16.70;99.90
51950;DHT22;37974;53.218;6.640;2023-07-13T05:29:19;16.80;99.90
51950;DHT22;37974;53.218;6.640;2023-07-13T05:31:44;16.80;99.90
51950;DHT22;37974;53.218;6.640;2023-07-13T05:34:10;16.90;99.90
51950;DHT22;37974;53.218;6.640;2023-07-13T05:36:36;17.00;99.90
51950;DHT22;37974;53.218;6.640;2023-07-13T05:39:02;17.00;99.90
51950;DHT22;37974;53.218;6.640;2023-07-13T05:41:31;17.10;99.90
51950;DHT22;37974;53.218;6.640;2023-07-13T05:43:57;17.20;99.90
51950;DHT22;37974;53.218;6.640;2023-07-13T05:46:22;17.20;99.90
51950;DHT22;37974;53.218;6.640;2023-07-13T05:48:48;17.30;99.90
51950;DHT22;37974;53.218;6.640;2023-07-13T05:51:13;17.40;99.90
51950;DHT22;37974;53.218;6.640;2023-07-13T05:53:39;17.50;99.90
51950;DHT22;37974;53.218;6.640;2023-07-13T05:56:05;17.50;99.90
51950;DHT22;37974;53.218;6.640;2023-07-13T05:58:30;17.60;99.90
51950;DHT22;37974;53.218;6.640;2023-07-13T06:01:03;17.70;99.90
51950;DHT22;37974;53.218;6.640;2023-07-13T06:03:29;17.80;99.90
51950;DHT22;37974;53.218;6.640;2023-07-13T06:05:55;17.90;99.90
51950;DHT22;37974;53.218;6.640;2023-07-13T06:08:21;17.90;99.90
51950;DHT22;37974;53.218;6.640;2023-07-13T06:10:46;18.00;99.90
51950;DHT22;37974;53.218;6.640;2023-07-13T06:13:12;18.10;99.90
51950;DHT22;37974;53.218;6.640;2023-07-13T06:15:38;18.10;99.90
51950;DHT22;37974;53.218;6.640;2023-07-13T06:18:03;18.20;99.90
51950;DHT22;37974;53.218;6.640;2023-07-13T06:20:29;18.20;99.90
51950;DHT22;37974;53.218;6.640;2023-07-13T06:22:54;18.30;99.90
51950;DHT22;37974;53.218;6.640;2023-07-13T06:25:20;18.30;99.90
51950;DHT22;37974;53.218;6.640;2023-07-13T06:27:46;18.30;99.90
51950;DHT22;37974;53.218;6.640;2023-07-13T06:30:12;18.40;99.90
51950;DHT22;37974;53.218;6.640;2023-07-13T06:32:38;18.40;99.90
51950;DHT22;37974;53.218;6.640;2023-07-13T06:35:03;18.60;99.90
51950;DHT22;37974;53.218;6.640;2023-07-13T06:37:29;18.70;99.90
51950;DHT22;37974;53.218;6.640;2023-07-13T06:39:55;18.90;99.90
51950;DHT22;37974;53.218;6.640;2023-07-13T06:42:20;18.90;99.90
51950;DHT22;37974;53.218;6.640;2023-07-13T06:44:46;18.80;99.90
51950;DHT22;37974;53.218;6.640;2023-07-13T06:47:12;18.90;99.90
51950;DHT22;37974;53.218;6.640;2023-07-13T06:49:37;19.00;99.90
51950;DHT22;37974;53.218;6.640;2023-07-13T06:52:03;19.10;99.90
51950;DHT22;37974;53.218;6.640;2023-07-13T06:54:29;19.10;99.90
51950;DHT22;37974;53.218;6.640;2023-07-13T06:56:55;19.20;99.90
51950;DHT22;37974;53.218;6.640;2023-07-13T06:59:20;19.30;99.90
51950;DHT22;37974;53.218;6.640;2023-07-13T07:01:46;19.30;99.90
51950;DHT22;37974;53.218;6.640;2023-07-13T07:04:11;19.40;99.90
51950;DHT22;37974;53.218;6.640;2023-07-13T07:06:37;19.50;99.90
51950;DHT22;37974;53.218;6.640;2023-07-13T07:09:03;19.60;99.90
51950;DHT22;37974;53.218;6.640;2023-07-13T07:11:28;19.50;99.90
51950;DHT22;37974;53.218;6.640;2023-07-13T07:13:54;19.50;99.90
51950;DHT22;37974;53.218;6.640;2023-07-13T07:16:20;19.50;99.90
51950;DHT22;37974;53.218;6.640;2023-07-13T07:18:46;19.70;99.90
51950;DHT22;37974;53.218;6.640;2023-07-13T07:21:12;19.90;99.90
51950;DHT22;37974;53.218;6.640;2023-07-13T07:23:38;20.00;99.90
51950;DHT22;37974;53.218;6.640;2023-07-13T07:26:03;20.00;99.90
51950;DHT22;37974;53.218;6.640;2023-07-13T07:28:29;20.00;99.90
51950;DHT22;37974;53.218;6.640;2023-07-13T07:30:55;19.90;99.90
51950;DHT22;37974;53.218;6.640;2023-07-13T07:33:22;19.70;99.90
51950;DHT22;37974;53.218;6.640;2023-07-13T07:35:47;19.50;99.90
51950;DHT22;37974;53.218;6.640;2023-07-13T07:38:13;19.50;99.90
51950;DHT22;37974;53.218;6.640;2023-07-13T07:40:39;19.60;99.90
51950;DHT22;37974;53.218;6.640;2023-07-13T07:43:06;19.50;99.90
51950;DHT22;37974;53.218;6.640;2023-07-13T07:45:31;19.70;99.90
51950;DHT22;37974;53.218;6.640;2023-07-13T07:47:58;19.70;99.90
51950;DHT22;37974;53.218;6.640;2023-07-13T07:50:24;19.70;99.90
51950;DHT22;37974;53.218;6.640;2023-07-13T07:52:50;19.70;99.90
51950;DHT22;37974;53.218;6.640;2023-07-13T07:55:16;19.90;99.90
51950;DHT22;37974;53.218;6.640;2023-07-13T07:57:42;19.90;99.90
51950;DHT22;37974;53.218;6.640;2023-07-13T08:00:07;19.90;99.90
51950;DHT22;37974;53.218;6.640;2023-07-13T08:02:33;19.80;99.90
51950;DHT22;37974;53.218;6.640;2023-07-13T08:04:59;19.60;99.90
51950;DHT22;37974;53.218;6.640;2023-07-13T08:07:24;19.50;99.90
51950;DHT22;37974;53.218;6.640;2023-07-13T08:09:53;19.40;99.90
51950;DHT22;37974;53.218;6.640;2023-07-13T08:12:19;19.20;99.90
51950;DHT22;37974;53.218;6.640;2023-07-13T08:14:44;19.00;99.90
51950;DHT22;37974;53.218;6.640;2023-07-13T08:17:10;18.70;99.90
51950;DHT22;37974;53.218;6.640;2023-07-13T08:19:36;18.60;99.90
51950;DHT22;37974;53.218;6.640;2023-07-13T08:22:01;18.50;99.90
51950;DHT22;37974;53.218;6.640;2023-07-13T08:24:27;18.60;99.90
51950;DHT22;37974;53.218;6.640;2023-07-13T08:26:52;18.80;99.90
51950;DHT22;37974;53.218;6.640;2023-07-13T08:29:18;18.90;99.90
51950;DHT22;37974;53.218;6.640;2023-07-13T08:31:44;19.10;99.90
51950;DHT22;37974;53.218;6.640;2023-07-13T08:34:10;19.30;99.90
51950;DHT22;37974;53.218;6.640;2023-07-13T08:36:36;19.40;99.90
51950;DHT22;37974;53.218;6.640;2023-07-13T08:39:01;19.50;99.90
51950;DHT22;37974;53.218;6.640;2023-07-13T08:41:27;19.70;99.90
51950;DHT22;37974;53.218;6.640;2023-07-13T08:43:57;19.70;99.90
51950;DHT22;37974;53.218;6.640;2023-07-13T08:46:26;19.80;99.90
51950;DHT22;37974;53.218;6.640;2023-07-13T08:48:53;20.00;99.90
51950;DHT22;37974;53.218;6.640;2023-07-13T08:51:24;20.10;99.90
51950;DHT22;37974;53.218;6.640;2023-07-13T08:53:54;20.30;99.90
51950;DHT22;37974;53.218;6.640;2023-07-13T08:56:23;20.70;99.90
51950;DHT22;37974;53.218;6.640;2023-07-13T08:58:51;20.90;99.90
51950;DHT22;37974;53.218;6.640;2023-07-13T09:01:22;21.20;99.90
51950;DHT22;37974;53.218;6.640;2023-07-13T09:06:14;21.70;99.90
51950;DHT22;37974;53.218;6.640;2023-07-13T09:13:46;21.80;99.90
51950;DHT22;37974;53.218;6.640;2023-07-13T09:16:14;21.60;99.90
51950;DHT22;37974;53.218;6.640;2023-07-13T09:18:44;21.40;99.90
51950;DHT22;37974;53.218;6.640;2023-07-13T09:21:12;21.10;99.90
51950;DHT22;37974;53.218;6.640;2023-07-13T09:23:39;20.80;99.90
51950;DHT22;37974;53.218;6.640;2023-07-13T09:28:42;20.90;99.90
51950;DHT22;37974;53.218;6.640;2023-07-13T09:31:14;21.20;99.90
51950;DHT22;37974;53.218;6.640;2023-07-13T09:33:40;21.30;99.90
51950;DHT22;37974;53.218;6.640;2023-07-13T09:36:39;21.20;99.90
51950;DHT22;37974;53.218;6.640;2023-07-13T09:42:12;21.40;99.90
51950;DHT22;37974;53.218;6.640;2023-07-13T09:47:16;22.30;99.90
51950;DHT22;37974;53.218;6.640;2023-07-13T09:49:43;22.60;99.90
51950;DHT22;37974;53.218;6.640;2023-07-13T09:52:12;22.80;99.90
51950;DHT22;37974;53.218;6.640;2023-07-13T09:54:39;22.90;99.90
51950;DHT22;37974;53.218;6.640;2023-07-13T09:57:17;23.00;99.90
51950;DHT22;37974;53.218;6.640;2023-07-13T09:59:44;23.20;99.90
51950;DHT22;37974;53.218;6.640;2023-07-13T10:04:57;23.10;99.90
51950;DHT22;37974;53.218;6.640;2023-07-13T10:07:23;22.80;99.90
51950;DHT22;37974;53.218;6.640;2023-07-13T10:09:55;22.50;99.90
51950;DHT22;37974;53.218;6.640;2023-07-13T10:12:22;22.10;99.90
51950;DHT22;37974;53.218;6.640;2023-07-13T10:14:56;21.60;99.90
51950;DHT22;37974;53.218;6.640;2023-07-13T10:17:27;21.20;99.90
51950;DHT22;37974;53.218;6.640;2023-07-13T10:20:00;20.90;99.90
51950;DHT22;37974;53.218;6.640;2023-07-13T10:22:36;20.80;99.90
51950;DHT22;37974;53.218;6.640;2023-07-13T10:25:08;20.80;99.90
51950;DHT22;37974;53.218;6.640;2023-07-13T10:27:38;20.80;99.90
51950;DHT22;37974;53.218;6.640;2023-07-13T10:30:20;20.90;99.90
51950;DHT22;37974;53.218;6.640;2023-07-13T10:32:48;21.20;99.90
51950;DHT22;37974;53.218;6.640;2023-07-13T10:35:15;21.60;99.90
51950;DHT22;37974;53.218;6.640;2023-07-13T10:37:53;21.90;99.90
51950;DHT22;37974;53.218;6.640;2023-07-13T10:40:25;21.80;99.90
51950;DHT22;37974;53.218;6.640;2023-07-13T10:42:52;21.70;99.90
51950;DHT22;37974;53.218;6.640;2023-07-13T10:45:21;21.80;99.90
51950;DHT22;37974;53.218;6.640;2023-07-13T10:47:48;22.20;99.90
51950;DHT22;37974;53.218;6.640;2023-07-13T10:50:24;22.20;99.90
51950;DHT22;37974;53.218;6.640;2023-07-13T10:52:51;22.00;99.90
51950;DHT22;37974;53.218;6.640;2023-07-13T10:58:28;21.40;99.90
51950;DHT22;37974;53.218;6.640;2023-07-13T11:00:51;21.30;99.90
51950;DHT22;37974;53.218;6.640;2023-07-13T11:03:18;21.10;99.90
51950;DHT22;37974;53.218;6.640;2023-07-13T11:05:47;21.10;99.90
51950;DHT22;37974;53.218;6.640;2023-07-13T11:13:35;21.70;99.90
51950;DHT22;37974;53.218;6.640;2023-07-13T11:15:57;21.60;99.90
51950;DHT22;37974;53.218;6.640;2023-07-13T11:18:23;21.50;99.90
51950;DHT22;37974;53.218;6.640;2023-07-13T11:20:50;21.60;99.90
51950;DHT22;37974;53.218;6.640;2023-07-13T11:25:43;21.90;99.90
51950;DHT22;37974;53.218;6.640;2023-07-13T11:31:20;22.20;99.90
51950;DHT22;37974;53.218;6.640;2023-07-13T11:36:05;22.30;99.90
51950;DHT22;37974;53.218;6.640;2023-07-13T11:38:33;22.40;99.90
51950;DHT22;37974;53.218;6.640;2023-07-13T11:41:00;22.30;99.90
51950;DHT22;37974;53.218;6.640;2023-07-13T11:43:28;22.20;99.90
51950;DHT22;37974;53.218;6.640;2023-07-13T11:45:54;22.30;99.90
51950;DHT22;37974;53.218;6.640;2023-07-13T11:48:21;22.30;99.90
51950;DHT22;37974;53.218;6.640;2023-07-13T11:51:21;22.30;99.90
51950;DHT22;37974;53.218;6.640;2023-07-13T11:53:40;22.50;99.90
51950;DHT22;37974;53.218;6.640;2023-07-13T11:56:06;22.70;99.90
51950;DHT22;37974;53.218;6.640;2023-07-13T11:58:32;22.60;99.90
51950;DHT22;37974;53.218;6.640;2023-07-13T12:00:58;22.50;99.90
51950;DHT22;37974;53.218;6.640;2023-07-13T12:03:26;22.30;99.90
51950;DHT22;37974;53.218;6.640;2023-07-13T12:05:55;22.30;99.90
51950;DHT22;37974;53.218;6.640;2023-07-13T12:08:22;22.60;99.90
51950;DHT22;37974;53.218;6.640;2023-07-13T12:10:48;22.80;99.90
51950;DHT22;37974;53.218;6.640;2023-07-13T12:13:21;22.70;99.90
51950;DHT22;37974;53.218;6.640;2023-07-13T12:15:46;22.40;99.90
51950;DHT22;37974;53.218;6.640;2023-07-13T12:18:15;22.30;99.90
51950;DHT22;37974;53.218;6.640;2023-07-13T12:20:41;22.40;99.90
51950;DHT22;37974;53.218;6.640;2023-07-13T12:25:44;22.60;99.90
51950;DHT22;37974;53.218;6.640;2023-07-13T12:28:20;22.60;99.90
51950;DHT22;37974;53.218;6.640;2023-07-13T12:30:47;22.80;99.90
51950;DHT22;37974;53.218;6.640;2023-07-13T12:33:13;22.90;99.90
51950;DHT22;37974;53.218;6.640;2023-07-13T12:35:40;23.10;99.90
51950;DHT22;37974;53.218;6.640;2023-07-13T12:38:08;23.20;99.90
51950;DHT22;37974;53.218;6.640;2023-07-13T12:40:36;23.30;99.90
51950;DHT22;37974;53.218;6.640;2023-07-13T12:43:02;23.10;99.90
51950;DHT22;37974;53.218;6.640;2023-07-13T12:45:29;23.00;99.90
51950;DHT22;37974;53.218;6.640;2023-07-13T12:48:03;22.80;99.90
51950;DHT22;37974;53.218;6.640;2023-07-13T12:50:33;22.50;99.90
51950;DHT22;37974;53.218;6.640;2023-07-13T12:53:03;22.40;99.90
51950;DHT22;37974;53.218;6.640;2023-07-13T12:55:39;22.30;99.90
51950;DHT22;37974;53.218;6.640;2023-07-13T12:58:06;22.40;99.90
51950;DHT22;37974;53.218;6.640;2023-07-13T13:00:33;22.40;99.90
51950;DHT22;37974;53.218;6.640;2023-07-13T13:03:05;22.60;99.90
51950;DHT22;37974;53.218;6.640;2023-07-13T13:05:32;22.60;99.90
51950;DHT22;37974;53.218;6.640;2023-07-13T13:07:58;22.70;99.90
51950;DHT22;37974;53.218;6.640;2023-07-13T13:10:24;22.70;99.90
51950;DHT22;37974;53.218;6.640;2023-07-13T13:12:50;22.60;99.90
51950;DHT22;37974;53.218;6.640;2023-07-13T13:15:15;22.40;99.90
51950;DHT22;37974;53.218;6.640;2023-07-13T13:17:42;22.30;99.90
51950;DHT22;37974;53.218;6.640;2023-07-13T13:20:18;22.20;99.90
51950;DHT22;37974;53.218;6.640;2023-07-13T13:22:44;22.10;99.90
51950;DHT22;37974;53.218;6.640;2023-07-13T13:25:10;22.20;99.90
51950;DHT22;37974;53.218;6.640;2023-07-13T13:27:36;22.30;99.90
51950;DHT22;37974;53.218;6.640;2023-07-13T13:30:02;22.20;99.90
51950;DHT22;37974;53.218;6.640;2023-07-13T13:32:28;22.20;99.90
51950;DHT22;37974;53.218;6.640;2023-07-13T13:34:53;22.30;99.90
51950;DHT22;37974;53.218;6.640;2023-07-13T13:37:21;22.40;99.90
51950;DHT22;37974;53.218;6.640;2023-07-13T13:39:57;22.40;99.90
51950;DHT22;37974;53.218;6.640;2023-07-13T13:42:22;22.40;99.90
51950;DHT22;37974;53.218;6.640;2023-07-13T13:44:50;22.50;99.90
51950;DHT22;37974;53.218;6.640;2023-07-13T13:47:21;22.60;99.90
51950;DHT22;37974;53.218;6.640;2023-07-13T13:49:50;22.50;99.90
51950;DHT22;37974;53.218;6.640;2023-07-13T13:52:25;22.30;99.90
51950;DHT22;37974;53.218;6.640;2023-07-13T13:54:59;22.00;99.90
51950;DHT22;37974;53.218;6.640;2023-07-13T13:57:25;21.70;99.90
51950;DHT22;37974;53.218;6.640;2023-07-13T13:59:57;21.50;99.90
51950;DHT22;37974;53.218;6.640;2023-07-13T14:02:26;21.80;99.90
51950;DHT22;37974;53.218;6.640;2023-07-13T14:05:02;22.00;99.90
51950;DHT22;37974;53.218;6.640;2023-07-13T14:07:28;22.00;99.90
51950;DHT22;37974;53.218;6.640;2023-07-13T14:09:56;22.00;99.90
51950;DHT22;37974;53.218;6.640;2023-07-13T14:12:23;22.10;99.90
51950;DHT22;37974;53.218;6.640;2023-07-13T14:14:54;22.20;99.90
51950;DHT22;37974;53.218;6.640;2023-07-13T14:17:20;22.30;99.90
51950;DHT22;37974;53.218;6.640;2023-07-13T14:19:50;22.40;99.90
51950;DHT22;37974;53.218;6.640;2023-07-13T14:22:17;22.50;99.90
51950;DHT22;37974;53.218;6.640;2023-07-13T14:24:43;22.60;99.90
51950;DHT22;37974;53.218;6.640;2023-07-13T14:27:10;22.60;99.90
51950;DHT22;37974;53.218;6.640;2023-07-13T14:29:36;22.50;99.90
51950;DHT22;37974;53.218;6.640;2023-07-13T14:32:02;22.50;99.90
51950;DHT22;37974;53.218;6.640;2023-07-13T14:34:39;22.50;99.90
51950;DHT22;37974;53.218;6.640;2023-07-13T14:37:05;22.50;99.90
51950;DHT22;37974;53.218;6.640;2023-07-13T14:39:31;22.60;99.90
51950;DHT22;37974;53.218;6.640;2023-07-13T14:41:57;22.50;99.90
51950;DHT22;37974;53.218;6.640;2023-07-13T14:44:28;22.30;99.90
51950;DHT22;37974;53.218;6.640;2023-07-13T14:47:15;22.20;99.90
51950;DHT22;37974;53.218;6.640;2023-07-13T14:49:50;22.10;99.90
51950;DHT22;37974;53.218;6.640;2023-07-13T14:52:20;22.10;99.90
51950;DHT22;37974;53.218;6.640;2023-07-13T14:54:46;22.00;99.90
51950;DHT22;37974;53.218;6.640;2023-07-13T14:57:29;22.00;99.90
51950;DHT22;37974;53.218;6.640;2023-07-13T15:02:35;22.30;99.90
51950;DHT22;37974;53.218;6.640;2023-07-13T15:05:05;22.20;99.90
51950;DHT22;37974;53.218;6.640;2023-07-13T15:07:37;22.10;99.90
51950;DHT22;37974;53.218;6.640;2023-07-13T15:10:08;22.10;99.90
51950;DHT22;37974;53.218;6.640;2023-07-13T15:13:12;22.20;99.90
51950;DHT22;37974;53.218;6.640;2023-07-13T15:18:47;21.60;99.90
51950;DHT22;37974;53.218;6.640;2023-07-13T15:21:22;21.70;99.90
51950;DHT22;37974;53.218;6.640;2023-07-13T15:23:54;21.50;99.90
51950;DHT22;37974;53.218;6.640;2023-07-13T15:26:40;21.60;99.90
51950;DHT22;37974;53.218;6.640;2023-07-13T15:29:08;21.60;99.90
51950;DHT22;37974;53.218;6.640;2023-07-13T15:31:37;21.80;99.90
51950;DHT22;37974;53.218;6.640;2023-07-13T15:34:11;21.90;99.90
51950;DHT22;37974;53.218;6.640;2023-07-13T15:36:37;22.10;99.90
51950;DHT22;37974;53.218;6.640;2023-07-13T15:39:03;22.10;99.90
51950;DHT22;37974;53.218;6.640;2023-07-13T15:41:29;22.10;99.90
51950;DHT22;37974;53.218;6.640;2023-07-13T15:44:22;22.10;99.90
51950;DHT22;37974;53.218;6.640;2023-07-13T15:46:46;22.40;99.90
51950;DHT22;37974;53.218;6.640;2023-07-13T15:49:11;22.60;99.90
51950;DHT22;37974;53.218;6.640;2023-07-13T15:51:37;22.60;99.90
51950;DHT22;37974;53.218;6.640;2023-07-13T15:54:03;22.40;99.90
51950;DHT22;37974;53.218;6.640;2023-07-13T15:56:34;22.20;99.90
51950;DHT22;37974;53.218;6.640;2023-07-13T15:59:00;22.20;99.90
51950;DHT22;37974;53.218;6.640;2023-07-13T16:01:26;22.20;99.90
51950;DHT22;37974;53.218;6.640;2023-07-13T16:03:55;22.20;99.90
51950;DHT22;37974;53.218;6.640;2023-07-13T16:06:37;22.10;99.90
51950;DHT22;37974;53.218;6.640;2023-07-13T16:09:07;22.20;99.90
51950;DHT22;37974;53.218;6.640;2023-07-13T16:11:37;22.30;99.90
51950;DHT22;37974;53.218;6.640;2023-07-13T16:14:03;22.20;99.90
51950;DHT22;37974;53.218;6.640;2023-07-13T16:16:35;22.00;99.90
51950;DHT22;37974;53.218;6.640;2023-07-13T16:19:02;21.90;99.90
51950;DHT22;37974;53.218;6.640;2023-07-13T16:21:33;21.70;99.90